Time;durP1;ratioP1;P1;durP2;ratioP2;P2;SDS_P1;SDS_P2;PMS_P1;PMS_P2;Temp;Humidity;BMP_temperature;BMP_pressure;BME280_temperature;BME280_humidity;BME280_pressure;Samples;Min_cycle;Max_cycle;Signal;HPM_P1;HPM_P2
2022/10/20 05:17:00;;;;;;;;;;;;;;;18.07;75.53;97055.38;4231526;27;10163;-71
2022/10/20 05:19:09;;;;;;;;;;;;;;;18.38;74.85;97056.03;4238154;27;5856;-71
2022/10/20 05:21:13;;;;;;;;;;;;;;;18.59;74.55;97088.34;4225893;27;5643;-71
2022/10/20 05:23:16;;;;;;;;;;;;;;;18.74;74.29;97087.84;4227546;27;5756;-71
2022/10/20 05:25:19;;;;;;;;;;;;;;;18.88;73.78;97088.38;4222732;27;5651;-71
2022/10/20 05:27:39;;;;;;;;;;;;;;;19.01;73.37;97109.53;4225533;27;5773;-71
2022/10/20 05:29:41;;;;;;;;;;;;;;;19.06;73.02;97101.59;4226820;27;5762;-71
2022/10/20 05:31:44;;;;;;;;;;;;;;;19.10;72.94;97093.91;4237057;27;5659;-71
2022/10/20 05:33:51;;;;;;;;;;;;;;;19.16;72.96;97090.28;4227629;27;5844;-72
2022/10/20 05:35:54;;;;;;;;;;;;;;;19.18;72.65;97086.28;4229735;27;5857;-71
2022/10/20 05:37:57;;;;;;;;;;;;;;;19.25;72.50;97088.00;4237603;27;5652;-71
2022/10/20 05:40:02;;;;;;;;;;;;;;;19.29;72.71;97083.78;4231364;27;5665;-72
2022/10/20 05:42:05;;;;;;;;;;;;;;;19.32;72.23;97081.44;4222883;27;5738;-72
2022/10/20 05:44:08;;;;;;;;;;;;;;;19.36;72.28;97098.66;4232442;27;5842;-73
2022/10/20 05:46:11;;;;;;;;;;;;;;;19.39;72.21;97073.25;4239274;27;5722;-72
2022/10/20 05:48:14;;;;;;;;;;;;;;;19.42;72.14;97078.13;4239885;27;5806;-72
2022/10/20 05:50:18;;;;;;;;;;;;;;;19.44;71.84;97073.31;4230021;28;5692;-72
2022/10/20 05:52:21;;;;;;;;;;;;;;;19.47;71.81;97062.09;4229877;27;5710;-72
2022/10/20 05:54:24;;;;;;;;;;;;;;;19.51;71.85;97059.78;4227760;27;5690;-71
2022/10/20 05:56:28;;;;;;;;;;;;;;;19.52;71.78;97064.88;4222120;27;5820;-71
2022/10/20 05:58:30;;;;;;;;;;;;;;;19.54;71.61;97075.38;4233905;27;5820;-71
2022/10/20 06:00:40;;;;;;;;;;;;;;;19.53;71.50;97079.91;4231228;28;5767;-71
2022/10/20 06:02:43;;;;;;;;;;;;;;;19.52;71.40;97089.03;4238102;27;5746;-71
2022/10/20 06:04:46;;;;;;;;;;;;;;;19.52;71.30;97102.44;4232131;27;5681;-72
2022/10/20 06:06:50;;;;;;;;;;;;;;;19.51;71.42;97118.75;4228887;27;5777;-71
2022/10/20 06:08:54;;;;;;;;;;;;;;;19.45;71.33;97107.13;4229374;28;5748;-72
2022/10/20 06:10:57;;;;;;;;;;;;;;;19.48;71.46;97120.06;4230877;28;5724;-71
2022/10/20 06:12:59;;;;;;;;;;;;;;;19.46;71.51;97112.25;4226044;27;5861;-72
2022/10/20 06:15:02;;;;;;;;;;;;;;;19.46;71.21;97112.25;4229888;28;5763;-71
2022/10/20 06:17:07;;;;;;;;;;;;;;;19.48;71.45;97122.75;4219378;28;5813;-72
2022/10/20 06:19:10;;;;;;;;;;;;;;;19.49;71.02;97127.88;4213623;27;5673;-72
2022/10/20 06:21:15;;;;;;;;;;;;;;;19.47;70.94;97142.53;4214531;28;5827;-72
2022/10/20 06:23:19;;;;;;;;;;;;;;;19.47;71.03;97151.41;4214607;28;5697;-71
2022/10/20 06:25:22;;;;;;;;;;;;;;;19.49;70.94;97143.94;4227807;28;5090;-72
2022/10/20 06:27:25;;;;;;;;;;;;;;;19.52;70.97;97152.56;4222113;28;5731;-72
2022/10/20 06:29:28;;;;;;;;;;;;;;;19.54;70.75;97143.22;4213050;28;5681;-72
2022/10/20 06:31:33;;;;;;;;;;;;;;;19.53;70.62;97146.94;4223095;28;5806;-72
2022/10/20 06:33:36;;;;;;;;;;;;;;;19.54;70.67;97135.16;4212994;27;5765;-72
2022/10/20 06:35:38;;;;;;;;;;;;;;;19.53;70.30;97125.50;4223507;28;5643;-72
2022/10/20 06:37:41;;;;;;;;;;;;;;;19.54;70.50;97113.72;4223277;28;5796;-72
2022/10/20 06:39:46;;;;;;;;;;;;;;;19.54;70.48;97100.31;4215718;28;5665;-72
2022/10/20 06:41:50;;;;;;;;;;;;;;;19.52;70.21;97102.44;4219710;28;5231;-72
2022/10/20 06:43:57;;;;;;;;;;;;;;;19.53;70.49;97101.38;4217277;28;5838;-72
2022/10/20 06:46:03;;;;;;;;;;;;;;;19.54;70.17;97097.63;4215596;28;5735;-72
2022/10/20 06:48:06;;;;;;;;;;;;;;;19.56;70.03;97084.00;4223246;28;5681;-72
2022/10/20 06:50:09;;;;;;;;;;;;;;;19.55;70.07;97082.34;4219373;28;5668;-72
2022/10/20 06:52:12;;;;;;;;;;;;;;;19.55;70.11;97071.63;4230302;28;5749;-72
2022/10/20 06:54:15;;;;;;;;;;;;;;;19.56;69.69;97089.38;4220544;28;5768;-72
2022/10/20 06:56:22;;;;;;;;;;;;;;;19.56;69.84;97076.78;4218380;28;5646;-72
2022/10/20 06:58:26;;;;;;;;;;;;;;;19.60;69.71;97079.81;4219332;28;7700;-72
2022/10/20 07:00:29;;;;;;;;;;;;;;;19.62;69.34;97088.41;4221433;28;5730;-72
2022/10/20 07:02:38;;;;;;;;;;;;;;;19.64;69.66;97097.03;4219335;27;5827;-71
2022/10/20 07:04:41;;;;;;;;;;;;;;;19.65;69.14;97096.78;4220381;28;5759;-72
2022/10/20 07:06:45;;;;;;;;;;;;;;;19.64;69.59;97097.84;4218798;28;5688;-71
2022/10/20 07:08:49;;;;;;;;;;;;;;;19.63;69.19;97096.22;4220947;28;5775;-72
2022/10/20 07:11:00;;;;;;;;;;;;;;;19.63;69.58;97128.41;4218137;28;5770;-72
2022/10/20 07:13:04;;;;;;;;;;;;;;;19.66;69.00;97144.00;4202460;28;5694;-72
2022/10/20 07:15:08;;;;;;;;;;;;;;;19.66;69.02;97127.09;4201835;28;5833;-71
2022/10/20 07:17:11;;;;;;;;;;;;;;;19.68;69.20;97131.16;4202300;28;5690;-72
2022/10/20 07:19:14;;;;;;;;;;;;;;;19.69;68.95;97131.97;4201776;28;5804;-72
2022/10/20 07:21:18;;;;;;;;;;;;;;;19.69;68.87;97138.13;4216046;28;5677;-72
2022/10/20 07:23:21;;;;;;;;;;;;;;;19.70;68.69;97131.72;4219214;28;5689;-72
2022/10/20 07:25:24;;;;;;;;;;;;;;;19.70;69.09;97129.03;4218809;28;6680;-72
2022/10/20 07:27:27;;;;;;;;;;;;;;;19.69;68.74;97100.59;4218750;28;6584;-72
2022/10/20 07:29:32;;;;;;;;;;;;;;;19.69;68.96;97097.91;4217766;28;5676;-72
2022/10/20 07:31:42;;;;;;;;;;;;;;;19.72;68.65;97118.91;4218921;28;5694;-72
2022/10/20 07:33:45;;;;;;;;;;;;;;;19.70;68.71;97123.66;4218952;28;5785;-72
2022/10/20 07:36:13;;;;;;;;;;;;;;;19.68;68.88;97123.09;4218323;28;5816;-71
2022/10/20 07:38:16;;;;;;;;;;;;;;;19.74;68.54;97127.50;4218739;28;5673;-72
2022/10/20 07:40:19;;;;;;;;;;;;;;;19.76;68.54;97135.31;4218705;28;5673;-72
2022/10/20 07:42:22;;;;;;;;;;;;;;;19.76;68.27;97120.03;4218695;28;5785;-72
2022/10/20 07:44:25;;;;;;;;;;;;;;;19.77;68.33;97121.66;4218533;28;5681;-72
2022/10/20 07:46:30;;;;;;;;;;;;;;;19.78;68.20;97119.78;4218421;28;5769;-72
2022/10/20 07:48:33;;;;;;;;;;;;;;;19.77;68.22;97129.69;4218610;28;5681;-72
2022/10/20 07:50:36;;;;;;;;;;;;;;;19.78;68.07;97128.63;4232662;28;5648;-72
2022/10/20 07:52:39;;;;;;;;;;;;;;;19.79;68.26;97129.44;4235262;28;5647;-72
2022/10/20 07:54:41;;;;;;;;;;;;;;;19.79;68.18;97121.41;4235387;28;5780;-72
2022/10/20 07:56:45;;;;;;;;;;;;;;;19.80;68.10;97130.25;4235274;28;6348;-72
2022/10/20 07:58:48;;;;;;;;;;;;;;;19.77;67.94;97139.63;4235415;28;5800;-72
2022/10/20 08:00:51;;;;;;;;;;;;;;;19.75;67.82;97137.19;4235333;28;5544;-73
2022/10/20 08:02:55;;;;;;;;;;;;;;;19.75;67.74;97157.81;4235410;28;5824;-72
2022/10/20 08:04:58;;;;;;;;;;;;;;;19.74;68.05;97151.66;4235116;27;6524;-72
2022/10/20 08:07:01;;;;;;;;;;;;;;;19.76;68.05;97144.16;4235097;28;5672;-71
2022/10/20 08:09:12;;;;;;;;;;;;;;;19.78;67.65;97136.69;4235104;28;5715;-71
2022/10/20 08:11:15;;;;;;;;;;;;;;;19.78;67.85;97147.41;4235094;28;5640;-71
2022/10/20 08:13:20;;;;;;;;;;;;;;;19.80;67.88;97143.69;4235094;28;5648;-72
2022/10/20 08:15:22;;;;;;;;;;;;;;;19.78;67.82;97122.47;4234882;27;5680;-72
2022/10/20 08:17:26;;;;;;;;;;;;;;;19.80;67.73;97112.28;4235066;27;5799;-72
2022/10/20 08:19:33;;;;;;;;;;;;;;;19.81;67.84;97107.75;4235134;28;5664;-72
2022/10/20 08:21:50;;;;;;;;;;;;;;;19.81;67.39;97097.00;4233379;27;5743;-71
2022/10/20 08:23:53;;;;;;;;;;;;;;;19.81;67.61;97113.09;4234928;28;5643;-72
2022/10/20 08:25:57;;;;;;;;;;;;;;;19.82;67.22;97117.41;4234862;28;5652;-72
2022/10/20 08:28:02;;;;;;;;;;;;;;;19.81;67.27;97108.56;4234747;28;5644;-72
2022/10/20 08:30:08;;;;;;;;;;;;;;;19.82;67.32;97125.47;4235061;28;5655;-72
2022/10/20 08:32:26;;;;;;;;;;;;;;;19.83;67.06;97116.38;4234900;28;6954;-71
2022/10/20 08:34:29;;;;;;;;;;;;;;;19.82;67.37;97087.91;4234922;28;5730;-72
2022/10/20 08:36:36;;;;;;;;;;;;;;;19.84;67.12;97075.09;4234450;28;5675;-70
2022/10/20 08:38:40;;;;;;;;;;;;;;;19.85;67.38;97087.44;4234683;28;5643;-71
2022/10/20 08:40:44;;;;;;;;;;;;;;;19.83;67.21;97062.72;4234504;28;5777;-71
2022/10/20 08:42:48;;;;;;;;;;;;;;;19.79;67.40;97065.06;4234722;28;6349;-71
2022/10/20 08:44:51;;;;;;;;;;;;;;;19.81;67.13;97073.69;4234633;27;5738;-71
2022/10/20 08:46:55;;;;;;;;;;;;;;;19.85;67.15;97082.06;4234594;28;5741;-71
2022/10/20 08:48:59;;;;;;;;;;;;;;;19.89;66.93;97083.19;4234685;28;5087;-71
2022/10/20 08:51:04;;;;;;;;;;;;;;;19.93;67.22;97100.41;4234727;28;5660;-72
2022/10/20 08:53:12;;;;;;;;;;;;;;;19.95;66.78;97104.50;4234378;28;5655;-72
2022/10/20 08:55:26;;;;;;;;;;;;;;;19.96;67.27;97116.06;4234595;28;5650;-72
2022/10/20 08:57:31;;;;;;;;;;;;;;;19.95;67.16;97106.38;4234611;28;5696;-72
2022/10/20 08:59:38;;;;;;;;;;;;;;;19.99;67.18;97107.50;4234516;28;5746;-71
2022/10/20 09:01:42;;;;;;;;;;;;;;;20.00;67.12;97117.19;4234349;28;5221;-72
2022/10/20 09:03:48;;;;;;;;;;;;;;;20.02;66.89;97120.41;4234583;28;5643;-72
2022/10/20 09:05:55;;;;;;;;;;;;;;;20.02;66.83;97117.75;4234157;28;5651;-72
2022/10/20 09:07:58;;;;;;;;;;;;;;;20.04;66.92;97131.72;4234490;28;5068;-73
2022/10/20 09:10:16;;;;;;;;;;;;;;;20.03;67.10;97132.78;4234383;28;5729;-72
2022/10/20 09:12:21;;;;;;;;;;;;;;;20.07;66.61;97112.47;4234587;28;5667;-72
2022/10/20 09:14:29;;;;;;;;;;;;;;;20.08;66.71;97083.75;4234487;28;5695;-71
2022/10/20 09:16:37;;;;;;;;;;;;;;;20.08;66.96;97078.38;4234235;27;5651;-71
2022/10/20 09:19:01;;;;;;;;;;;;;;;20.10;67.01;97077.06;4234296;28;5715;-72
2022/10/20 09:21:07;;;;;;;;;;;;;;;20.10;66.70;97058.28;4234328;28;5644;-72
2022/10/20 09:23:14;;;;;;;;;;;;;;;20.14;66.77;97062.09;4233332;28;5712;-72
2022/10/20 09:25:42;;;;;;;;;;;;;;;20.11;66.75;97035.75;4234423;28;7672;-73
2022/10/20 09:27:47;;;;;;;;;;;;;;;20.08;66.31;97022.84;4234336;28;5644;-72
2022/10/20 09:29:50;;;;;;;;;;;;;;;20.00;67.00;97010.66;4234200;28;5702;-72
2022/10/20 09:31:56;;;;;;;;;;;;;;;20.02;66.72;96996.97;4234447;28;5671;-71
2022/10/20 09:33:59;;;;;;;;;;;;;;;20.01;66.61;96990.00;4234365;27;5647;-72
2022/10/20 09:36:05;;;;;;;;;;;;;;;20.06;66.84;96972.09;4234025;27;5672;-71
2022/10/20 09:38:18;;;;;;;;;;;;;;;20.10;66.71;96960.88;4234010;28;5770;-72
2022/10/20 09:40:25;;;;;;;;;;;;;;;20.14;66.75;96962.78;4233841;28;5647;-72
2022/10/20 09:42:35;;;;;;;;;;;;;;;20.20;66.25;96955.63;4234273;28;5760;-72
2022/10/20 09:44:49;;;;;;;;;;;;;;;20.25;66.58;96974.47;4234307;28;6145;-71
2022/10/20 09:46:54;;;;;;;;;;;;;;;20.27;66.06;96966.97;4234137;28;7672;-71
2022/10/20 09:48:58;;;;;;;;;;;;;;;20.30;66.25;96963.81;4233743;28;5667;-73
2022/10/20 09:51:07;;;;;;;;;;;;;;;20.32;66.17;96951.75;4217270;28;5827;-73
2022/10/20 09:53:19;;;;;;;;;;;;;;;20.33;66.04;96958.72;4219696;28;5749;-72
2022/10/20 09:55:29;;;;;;;;;;;;;;;20.34;65.90;96952.28;4220455;28;5681;-72
2022/10/20 09:57:34;;;;;;;;;;;;;;;20.38;66.24;96973.25;4219997;28;5672;-72
2022/10/20 09:59:40;;;;;;;;;;;;;;;20.37;66.11;96975.13;4220304;28;5693;-71
2022/10/20 10:01:53;;;;;;;;;;;;;;;20.42;66.17;96987.81;4220203;28;5849;-72
2022/10/20 10:04:00;;;;;;;;;;;;;;;20.42;66.04;96982.47;4220440;28;5664;-73
2022/10/20 10:06:21;;;;;;;;;;;;;;;20.43;66.01;96968.00;4220059;28;5791;-71
2022/10/20 10:08:26;;;;;;;;;;;;;;;20.45;66.00;96963.19;4220232;28;5736;-72
2022/10/20 10:10:31;;;;;;;;;;;;;;;20.46;65.64;96949.50;4220215;28;5676;-72
2022/10/20 10:12:35;;;;;;;;;;;;;;;20.46;65.87;96946.00;4219404;28;5782;-71
2022/10/20 10:14:50;;;;;;;;;;;;;;;20.47;66.06;96942.25;4219783;28;5692;-71
2022/10/20 10:16:54;;;;;;;;;;;;;;;20.50;65.75;96926.47;4219922;28;5057;-71
2022/10/20 10:19:01;;;;;;;;;;;;;;;20.52;65.93;96932.41;4219911;28;5748;-72
2022/10/20 10:21:06;;;;;;;;;;;;;;;20.54;65.50;96929.44;4220059;28;5677;-72
2022/10/20 10:23:25;;;;;;;;;;;;;;;20.54;65.42;96921.41;4219902;28;5661;-72
2022/10/20 10:25:30;;;;;;;;;;;;;;;20.52;65.26;96915.47;4218514;28;5838;-71
2022/10/20 10:27:36;;;;;;;;;;;;;;;20.55;65.62;96913.09;4219932;28;5745;-71
2022/10/20 10:29:38;;;;;;;;;;;;;;;20.59;65.61;96897.25;4219837;28;5684;-71
2022/10/20 10:31:49;;;;;;;;;;;;;;;20.60;65.61;96893.50;4218585;28;5616;-71
2022/10/20 10:33:56;;;;;;;;;;;;;;;20.63;65.54;96893.03;4219839;28;5688;-71
2022/10/20 10:36:03;;;;;;;;;;;;;;;20.62;65.20;96896.78;4219691;28;5672;-71
2022/10/20 10:38:09;;;;;;;;;;;;;;;20.62;65.22;96888.72;4219383;28;5759;-71
2022/10/20 10:40:15;;;;;;;;;;;;;;;20.64;65.07;96897.31;4219735;28;5684;-71
2022/10/20 10:42:48;;;;;;;;;;;;;;;20.66;64.87;96892.50;4219814;28;5681;-71
2022/10/20 10:45:02;;;;;;;;;;;;;;;20.70;65.07;96882.84;4227775;28;5801;-71
2022/10/20 10:47:23;;;;;;;;;;;;;;;20.71;65.19;96889.84;4236496;28;5660;-71
2022/10/20 10:49:47;;;;;;;;;;;;;;;20.73;65.08;96893.13;4236492;28;5525;-72
2022/10/20 10:51:59;;;;;;;;;;;;;;;20.77;64.98;96896.91;4236296;28;8427;-70
2022/10/20 10:54:19;;;;;;;;;;;;;;;20.79;64.63;96902.81;4236375;28;5651;-71
2022/10/20 10:56:32;;;;;;;;;;;;;;;20.79;64.66;96900.13;4236437;28;5660;-71
2022/10/20 10:58:51;;;;;;;;;;;;;;;20.82;64.47;96905.00;4236081;28;5628;-71
2022/10/20 11:01:03;;;;;;;;;;;;;;;20.85;64.68;96909.06;4236328;28;5821;-71
2022/10/20 11:03:23;;;;;;;;;;;;;;;20.88;64.61;96914.72;4236199;28;5785;-71
2022/10/20 11:05:52;;;;;;;;;;;;;;;20.93;64.54;96906.69;4236207;27;5643;-71
2022/10/20 11:08:08;;;;;;;;;;;;;;;20.96;64.23;96915.34;4235922;28;5648;-71
2022/10/20 11:10:21;;;;;;;;;;;;;;;20.98;64.25;96923.97;4236192;28;5722;-71
2022/10/20 11:12:50;;;;;;;;;;;;;;;20.99;64.59;96931.75;4236140;28;5667;-71
2022/10/20 11:15:08;;;;;;;;;;;;;;;21.01;64.42;96935.00;4236127;28;5660;-71
2022/10/20 11:17:27;;;;;;;;;;;;;;;21.04;64.49;96922.91;4236252;27;5631;-72
2022/10/20 11:19:59;;;;;;;;;;;;;;;21.03;64.32;96927.47;4236097;28;5640;-71
2022/10/20 11:22:11;;;;;;;;;;;;;;;21.04;64.53;96929.09;4233823;28;5733;-71
2022/10/20 11:24:36;;;;;;;;;;;;;;;21.03;64.49;96937.41;4235976;28;5770;-71
2022/10/20 11:26:41;;;;;;;;;;;;;;;21.03;64.04;96932.03;4235769;27;5643;-71
2022/10/20 11:28:47;;;;;;;;;;;;;;;21.02;64.24;96925.06;4217347;28;5788;-71
2022/10/20 11:30:51;;;;;;;;;;;;;;;21.03;64.17;96923.97;4215269;28;5744;-71
2022/10/20 11:33:01;;;;;;;;;;;;;;;21.00;63.95;96922.63;4208708;28;5665;-71
2022/10/20 11:35:13;;;;;;;;;;;;;;;21.00;64.18;96921.81;4218279;28;5781;-71
2022/10/20 11:37:21;;;;;;;;;;;;;;;20.99;64.22;96914.81;4226647;28;5737;-71
2022/10/20 11:39:30;;;;;;;;;;;;;;;20.98;64.04;96930.13;4218378;28;5677;-71
2022/10/20 11:41:39;;;;;;;;;;;;;;;20.96;64.08;96940.34;4218104;28;5668;-71
2022/10/20 11:43:49;;;;;;;;;;;;;;;20.91;63.98;96940.28;4214847;28;5768;-71
2022/10/20 11:45:57;;;;;;;;;;;;;;;20.88;64.06;96941.59;4225822;28;5816;-71
2022/10/20 11:48:10;;;;;;;;;;;;;;;20.86;63.92;96946.44;4201184;28;5777;-72
2022/10/20 11:50:14;;;;;;;;;;;;;;;20.88;64.01;96940.78;4206326;28;5734;-72
2022/10/20 11:52:40;;;;;;;;;;;;;;;20.89;64.06;96940.53;4223142;28;5680;-72
2022/10/20 11:55:17;;;;;;;;;;;;;;;20.91;64.26;96940.28;4224880;28;5762;-72
2022/10/20 11:57:29;;;;;;;;;;;;;;;20.89;63.93;96928.97;4201305;28;5698;-72
2022/10/20 12:00:01;;;;;;;;;;;;;;;20.87;64.09;96918.50;4200615;28;5757;-72
2022/10/20 12:02:54;;;;;;;;;;;;;;;20.85;64.08;96925.19;4220683;28;5651;-72
2022/10/20 12:05:17;;;;;;;;;;;;;;;20.83;64.14;96921.91;4201274;28;5777;-71
2022/10/20 12:07:59;;;;;;;;;;;;;;;20.82;64.17;96923.00;4217604;28;7130;-72
2022/10/20 12:10:39;;;;;;;;;;;;;;;20.80;63.77;96901.75;4139213;28;5755;-72
2022/10/20 12:12:53;;;;;;;;;;;;;;;20.79;63.73;96904.69;4149622;28;5815;-72
2022/10/20 12:14:59;;;;;;;;;;;;;;;20.78;63.94;96909.28;4149186;28;5700;-72
2022/10/20 12:17:12;;;;;;;;;;;;;;;20.75;63.77;96896.34;4149672;28;5715;-72
2022/10/20 12:19:18;;;;;;;;;;;;;;;20.78;63.86;96898.53;4149440;28;5962;-71
2022/10/20 12:21:53;;;;;;;;;;;;;;;20.79;64.00;96908.19;4132870;28;5722;-72
2022/10/20 12:24:03;;;;;;;;;;;;;;;20.81;64.04;96903.38;4133333;28;5722;-72
2022/10/20 12:27:00;;;;;;;;;;;;;;;20.83;63.67;96901.25;4147526;28;5866;-72
2022/10/20 12:29:41;;;;;;;;;;;;;;;20.85;63.82;96893.75;4149378;28;5707;-72
2022/10/20 12:32:44;;;;;;;;;;;;;;;20.87;63.74;96883.56;4148996;28;5844;-72
2022/10/20 12:34:48;;;;;;;;;;;;;;;20.87;63.35;96885.44;4084143;29;5868;-72
2022/10/20 12:37:08;;;;;;;;;;;;;;;20.87;63.24;96890.81;4083728;28;5924;-71
2022/10/20 12:39:23;;;;;;;;;;;;;;;20.88;63.53;96876.31;4073803;29;5889;-72
2022/10/20 12:41:28;;;;;;;;;;;;;;;20.89;63.36;96878.72;4088673;28;5951;-72
2022/10/20 12:43:48;;;;;;;;;;;;;;;20.90;63.16;96877.66;4079822;28;6024;-72
2022/10/20 12:45:51;;;;;;;;;;;;;;;20.91;62.94;96870.41;4118923;28;6479;-72
2022/10/20 12:47:57;;;;;;;;;;;;;;;20.93;63.37;96854.84;4132809;28;5807;-72
2022/10/20 12:50:05;;;;;;;;;;;;;;;20.92;63.47;96851.34;4132711;28;5799;-72
2022/10/20 12:52:18;;;;;;;;;;;;;;;20.94;63.25;96841.13;4152681;28;5836;-72
2022/10/20 12:54:29;;;;;;;;;;;;;;;20.96;63.10;96856.22;4161565;28;5789;-72
2022/10/20 12:56:37;;;;;;;;;;;;;;;20.97;63.20;96864.03;4140874;28;5855;-72
2022/10/20 12:59:09;;;;;;;;;;;;;;;20.96;62.89;96865.09;4132812;28;5899;-72
2022/10/20 13:01:12;;;;;;;;;;;;;;;20.97;63.26;96857.84;4153618;28;5764;-72
2022/10/20 13:03:36;;;;;;;;;;;;;;;20.94;63.10;96868.00;4165547;28;5782;-72
2022/10/20 13:05:48;;;;;;;;;;;;;;;20.94;62.98;96859.94;4155305;28;5866;-72
2022/10/20 13:08:25;;;;;;;;;;;;;;;20.94;62.98;96859.94;4151796;28;5786;-72
2022/10/20 13:10:32;;;;;;;;;;;;;;;20.94;62.79;96870.69;4206616;28;7263;-72
2022/10/20 13:12:40;;;;;;;;;;;;;;;20.93;62.62;96863.72;4215629;28;5779;-72
2022/10/20 13:14:56;;;;;;;;;;;;;;;20.92;63.04;96867.47;4227838;28;5668;-72
2022/10/20 13:17:05;;;;;;;;;;;;;;;20.91;63.00;96865.84;4227466;28;5672;-72
2022/10/20 13:19:15;;;;;;;;;;;;;;;20.90;62.91;96869.59;4223494;28;5660;-73
2022/10/20 13:21:28;;;;;;;;;;;;;;;20.86;62.79;96860.44;4223384;28;5727;-72
2022/10/20 13:23:37;;;;;;;;;;;;;;;20.86;63.00;96865.81;4233943;28;5680;-72
2022/10/20 13:25:44;;;;;;;;;;;;;;;20.88;62.84;96871.75;4233940;28;5674;-73
2022/10/20 13:27:49;;;;;;;;;;;;;;;20.89;63.03;96862.59;4218807;28;5661;-73
2022/10/20 13:29:53;;;;;;;;;;;;;;;20.87;62.77;96854.00;4228289;28;5643;-72
2022/10/20 13:32:09;;;;;;;;;;;;;;;20.88;62.64;96860.19;4212838;28;5210;-72
2022/10/20 13:34:24;;;;;;;;;;;;;;;20.90;62.90;96869.59;4215811;28;5655;-72
2022/10/20 13:36:41;;;;;;;;;;;;;;;20.90;62.50;96858.84;4232350;28;5661;-72
2022/10/20 13:38:54;;;;;;;;;;;;;;;20.91;62.65;96860.47;4229327;28;5710;-73
2022/10/20 13:41:06;;;;;;;;;;;;;;;20.92;62.56;96861.28;4228201;28;5668;-72
2022/10/20 13:43:26;;;;;;;;;;;;;;;20.92;62.68;96867.47;4220250;28;5767;-72
2022/10/20 13:45:39;;;;;;;;;;;;;;;20.91;62.22;96865.03;4233615;28;5757;-73
2022/10/20 13:47:48;;;;;;;;;;;;;;;20.91;62.20;96849.72;4228155;28;5797;-73
2022/10/20 13:50:01;;;;;;;;;;;;;;;20.94;62.55;96857.25;4212804;28;5694;-73
2022/10/20 13:52:13;;;;;;;;;;;;;;;20.97;62.61;96847.09;4212949;28;5669;-73
2022/10/20 13:54:22;;;;;;;;;;;;;;;20.97;62.47;96847.91;4219911;28;5665;-73
2022/10/20 13:56:34;;;;;;;;;;;;;;;20.98;62.36;96871.00;4232754;28;5764;-72
2022/10/20 13:58:37;;;;;;;;;;;;;;;20.97;62.32;96877.47;4206721;28;5852;-72
2022/10/20 14:00:41;;;;;;;;;;;;;;;20.96;62.21;96861.59;4225998;28;5731;-71
2022/10/20 14:02:53;;;;;;;;;;;;;;;20.94;61.99;96851.06;4226789;28;6476;-72
2022/10/20 14:05:06;;;;;;;;;;;;;;;20.96;62.28;96840.09;4220164;28;5840;-72
2022/10/20 14:07:14;;;;;;;;;;;;;;;20.97;61.88;96853.28;4230019;28;5652;-71
2022/10/20 14:09:19;;;;;;;;;;;;;;;20.98;62.17;96843.34;4228345;28;6998;-72
2022/10/20 14:11:23;;;;;;;;;;;;;;;20.98;61.87;96824.53;4227670;28;6344;-73
2022/10/20 14:13:33;;;;;;;;;;;;;;;20.98;61.79;96817.25;4223604;28;5716;-71
2022/10/20 14:15:37;;;;;;;;;;;;;;;21.01;61.93;96826.69;4227912;28;5680;-71
2022/10/20 14:17:39;;;;;;;;;;;;;;;21.01;62.04;96826.69;4227692;28;6487;-71
2022/10/20 14:19:42;;;;;;;;;;;;;;;21.01;62.07;96826.69;4215443;28;5613;-71
2022/10/20 14:21:50;;;;;;;;;;;;;;;21.01;61.87;96822.13;4214207;28;5763;-71
2022/10/20 14:23:53;;;;;;;;;;;;;;;21.03;61.85;96819.16;4224721;28;5676;-71
2022/10/20 14:25:57;;;;;;;;;;;;;;;21.05;62.05;96822.41;4208939;28;5623;-71
2022/10/20 14:28:01;;;;;;;;;;;;;;;21.06;61.95;96835.56;4213575;28;5684;-71
2022/10/20 14:30:15;;;;;;;;;;;;;;;21.09;61.72;96828.91;4219309;28;6564;-71
2022/10/20 14:32:20;;;;;;;;;;;;;;;21.09;61.47;96832.41;4224463;27;5677;-72
2022/10/20 14:34:27;;;;;;;;;;;;;;;21.09;61.73;96834.28;4219147;28;5752;-72
2022/10/20 14:36:30;;;;;;;;;;;;;;;21.09;61.38;96845.84;4219114;28;5766;-72
2022/10/20 14:38:37;;;;;;;;;;;;;;;21.08;61.62;96851.47;4218503;28;5672;-71
2022/10/20 14:40:40;;;;;;;;;;;;;;;21.07;61.79;96850.66;4227524;28;5657;-72
2022/10/20 14:42:44;;;;;;;;;;;;;;;21.05;61.68;96849.28;4227533;28;5760;-71
2022/10/20 14:44:49;;;;;;;;;;;;;;;21.03;61.51;96856.78;4221942;28;5684;-71
2022/10/20 14:46:56;;;;;;;;;;;;;;;21.01;61.74;96862.44;4216804;28;5811;-72
2022/10/20 14:49:00;;;;;;;;;;;;;;;20.98;61.93;96846.03;4219040;28;5756;-72
2022/10/20 14:51:33;;;;;;;;;;;;;;;20.97;61.72;96833.66;4230254;28;5643;-72
2022/10/20 14:53:35;;;;;;;;;;;;;;;20.96;61.75;96829.34;4203371;28;5705;-71
2022/10/20 14:55:38;;;;;;;;;;;;;;;20.96;62.04;96840.09;4215581;28;5680;-72
2022/10/20 14:57:44;;;;;;;;;;;;;;;20.92;61.93;96835.22;4210191;28;5748;-71
2022/10/20 14:59:54;;;;;;;;;;;;;;;20.92;61.82;96829.84;4218821;28;5669;-72
2022/10/20 15:02:07;;;;;;;;;;;;;;;20.92;61.67;96826.34;4215672;28;5685;-72
2022/10/20 15:04:15;;;;;;;;;;;;;;;20.90;62.11;96821.25;4217028;28;5673;-71
2022/10/20 15:06:19;;;;;;;;;;;;;;;20.88;61.83;96804.56;4215495;28;5953;-72
2022/10/20 15:08:27;;;;;;;;;;;;;;;20.88;61.58;96812.63;4207325;28;6265;-71
2022/10/20 15:10:30;;;;;;;;;;;;;;;20.87;62.03;96821.75;4216821;28;5680;-72
2022/10/20 15:12:41;;;;;;;;;;;;;;;20.87;61.81;96812.88;4222711;28;5859;-72
2022/10/20 15:14:46;;;;;;;;;;;;;;;20.86;61.67;96825.50;4209712;28;5689;-73
2022/10/20 15:16:50;;;;;;;;;;;;;;;20.88;61.89;96828.75;4218087;28;5831;-73
2022/10/20 15:19:12;;;;;;;;;;;;;;;20.86;61.88;96833.56;4201430;28;5816;-72
2022/10/20 15:21:15;;;;;;;;;;;;;;;20.85;61.99;96831.16;4220594;28;5707;-72
2022/10/20 15:23:20;;;;;;;;;;;;;;;20.85;61.85;96828.47;4224563;28;5666;-72
2022/10/20 15:25:23;;;;;;;;;;;;;;;20.83;62.27;96823.31;4214669;28;5851;-72
2022/10/20 15:27:26;;;;;;;;;;;;;;;20.83;62.41;96831.38;4217789;28;5747;-72
2022/10/20 15:29:30;;;;;;;;;;;;;;;20.83;62.05;96841.31;4215752;28;5685;-72
2022/10/20 15:31:33;;;;;;;;;;;;;;;20.82;62.20;96845.06;4220538;28;5105;-72
2022/10/20 15:33:36;;;;;;;;;;;;;;;20.82;62.03;96848.56;4224231;28;5745;-72
2022/10/20 15:35:44;;;;;;;;;;;;;;;20.81;62.01;96846.97;4214843;28;5672;-72
2022/10/20 15:37:49;;;;;;;;;;;;;;;20.80;61.97;96842.66;4215693;28;5668;-72
2022/10/20 15:39:52;;;;;;;;;;;;;;;20.79;62.17;96843.72;4214258;28;5647;-72
2022/10/20 15:41:55;;;;;;;;;;;;;;;20.80;62.12;96836.47;4214996;28;5859;-72
2022/10/20 15:44:03;;;;;;;;;;;;;;;20.80;62.30;96841.84;4212950;28;5785;-72
2022/10/20 15:46:06;;;;;;;;;;;;;;;20.79;62.36;96856.34;4218298;28;5740;-71
2022/10/20 15:48:09;;;;;;;;;;;;;;;20.79;62.37;96872.47;4206593;28;5647;-71
2022/10/20 15:50:12;;;;;;;;;;;;;;;20.77;62.13;96875.41;4214071;28;5811;-72
2022/10/20 15:52:17;;;;;;;;;;;;;;;20.77;62.35;96880.78;4214032;28;5855;-71
2022/10/20 15:54:22;;;;;;;;;;;;;;;20.77;61.95;96880.78;4218381;28;5665;-72
2022/10/20 15:56:25;;;;;;;;;;;;;;;20.77;62.42;96883.47;4210203;28;5654;-72
2022/10/20 15:58:29;;;;;;;;;;;;;;;20.77;62.40;96879.97;4210294;28;5688;-72
2022/10/20 16:00:32;;;;;;;;;;;;;;;20.77;62.43;96885.34;4219220;28;5751;-72
2022/10/20 16:02:35;;;;;;;;;;;;;;;20.74;62.11;96875.94;4214238;28;5747;-72
2022/10/20 16:04:38;;;;;;;;;;;;;;;20.72;62.39;96867.28;4205249;28;5792;-72
2022/10/20 16:06:42;;;;;;;;;;;;;;;20.69;62.55;96862.44;4210724;28;5717;-73
2022/10/20 16:08:48;;;;;;;;;;;;;;;20.69;62.41;96856.25;4207387;28;5669;-72
2022/10/20 16:10:51;;;;;;;;;;;;;;;20.67;62.70;96856.53;4222433;28;5655;-72
2022/10/20 16:12:54;;;;;;;;;;;;;;;20.68;62.41;96857.31;4214967;28;5785;-72
2022/10/20 16:14:57;;;;;;;;;;;;;;;20.68;62.42;96858.13;4215030;28;5809;-72
2022/10/20 16:17:00;;;;;;;;;;;;;;;20.67;62.54;96858.41;4212658;28;5684;-72
2022/10/20 16:19:03;;;;;;;;;;;;;;;20.67;62.66;96851.16;4215794;28;5782;-72
2022/10/20 16:21:07;;;;;;;;;;;;;;;20.66;62.75;96828.03;4226024;28;5663;-72
2022/10/20 16:23:10;;;;;;;;;;;;;;;20.65;62.80;96823.75;4215944;28;5669;-71
2022/10/20 16:25:14;;;;;;;;;;;;;;;20.62;62.98;96835.81;4207650;28;5752;-71
2022/10/20 16:27:17;;;;;;;;;;;;;;;20.62;63.22;96833.13;4213380;28;5698;-71
2022/10/20 16:29:20;;;;;;;;;;;;;;;20.62;63.27;96822.38;4213635;28;5652;-71
2022/10/20 16:31:23;;;;;;;;;;;;;;;20.60;63.30;96816.44;4217700;28;5681;-71
2022/10/20 16:33:28;;;;;;;;;;;;;;;20.62;63.30;96825.06;4217720;28;6345;-72
2022/10/20 16:35:30;;;;;;;;;;;;;;;20.61;63.46;96806.50;4217567;28;5744;-72